Terminal Aerodrome Forecast
Issued by NWS Jackson, KY

Home | Current Version | Previous Version | Text Only | Print | Product List | Glossary On
Versions: 1 2 3 4 5 6 7 8 9 10 11 12
000
FTUS43 KJKL 011100
TAFLOZ
TAF
KLOZ 011122Z 0112/0212 VRB03KT P6SM OVC100
     FM012100 19009KT 5SM -RA BR OVC025
     FM020200 22010G20KT 3SM -RA BR OVC010
     FM020800 27010G20KT 2SM -RASN OVC020=

USA.gov is the U.S. government's official web portal to all federal, state and local government web resources and services.